sensor_id;sensor_type;location;lat;lon;timestamp;P1;durP1;ratioP1;P2;durP2;ratioP2
12846;SDS011;6492;48.128;8.320;2023-02-08T00:03:35;20.53;;;11.27;;
12846;SDS011;6492;48.128;8.320;2023-02-08T00:07:37;16.67;;;10.17;;
12846;SDS011;6492;48.128;8.320;2023-02-08T00:11:40;19.17;;;10.10;;
12846;SDS011;6492;48.128;8.320;2023-02-08T00:15:43;15.50;;;9.50;;
12846;SDS011;6492;48.128;8.320;2023-02-08T00:19:46;14.90;;;9.77;;
12846;SDS011;6492;48.128;8.320;2023-02-08T00:23:48;19.77;;;10.23;;
12846;SDS011;6492;48.128;8.320;2023-02-08T00:27:50;17.63;;;10.10;;
12846;SDS011;6492;48.128;8.320;2023-02-08T00:31:53;17.83;;;10.30;;
12846;SDS011;6492;48.128;8.320;2023-02-08T00:35:57;18.47;;;9.77;;
12846;SDS011;6492;48.128;8.320;2023-02-08T00:39:59;13.83;;;8.60;;
12846;SDS011;6492;48.128;8.320;2023-02-08T00:44:01;18.17;;;10.23;;
12846;SDS011;6492;48.128;8.320;2023-02-08T00:48:05;13.57;;;8.63;;
12846;SDS011;6492;48.128;8.320;2023-02-08T00:52:06;15.40;;;8.90;;
12846;SDS011;6492;48.128;8.320;2023-02-08T00:56:09;16.53;;;9.40;;
12846;SDS011;6492;48.128;8.320;2023-02-08T01:00:12;15.77;;;9.37;;
12846;SDS011;6492;48.128;8.320;2023-02-08T01:04:16;16.83;;;9.40;;
12846;SDS011;6492;48.128;8.320;2023-02-08T01:08:18;14.93;;;9.47;;
12846;SDS011;6492;48.128;8.320;2023-02-08T01:12:21;16.47;;;9.93;;
12846;SDS011;6492;48.128;8.320;2023-02-08T01:26:37;19.93;;;10.97;;
12846;SDS011;6492;48.128;8.320;2023-02-08T01:31:11;17.13;;;9.47;;
12846;SDS011;6492;48.128;8.320;2023-02-08T01:35:37;17.20;;;9.77;;
12846;SDS011;6492;48.128;8.320;2023-02-08T01:40:44;17.27;;;9.73;;
12846;SDS011;6492;48.128;8.320;2023-02-08T02:14:41;14.67;;;8.60;;
12846;SDS011;6492;48.128;8.320;2023-02-08T03:19:34;15.47;;;7.37;;
12846;SDS011;6492;48.128;8.320;2023-02-08T03:24:29;12.17;;;6.80;;
12846;SDS011;6492;48.128;8.320;2023-02-08T03:34:34;11.17;;;6.73;;
12846;SDS011;6492;48.128;8.320;2023-02-08T03:39:17;11.47;;;6.23;;
12846;SDS011;6492;48.128;8.320;2023-02-08T03:43:43;11.53;;;7.03;;
12846;SDS011;6492;48.128;8.320;2023-02-08T03:48:38;11.87;;;6.47;;
12846;SDS011;6492;48.128;8.320;2023-02-08T04:22:06;12.13;;;7.00;;
12846;SDS011;6492;48.128;8.320;2023-02-08T04:26:44;10.50;;;5.80;;
12846;SDS011;6492;48.128;8.320;2023-02-08T04:55:56;10.77;;;5.33;;
12846;SDS011;6492;48.128;8.320;2023-02-08T05:05:00;10.90;;;6.03;;
12846;SDS011;6492;48.128;8.320;2023-02-08T05:09:21;9.53;;;5.53;;
12846;SDS011;6492;48.128;8.320;2023-02-08T05:38:14;11.47;;;6.63;;
12846;SDS011;6492;48.128;8.320;2023-02-08T05:42:27;12.83;;;6.67;;
12846;SDS011;6492;48.128;8.320;2023-02-08T05:47:18;11.40;;;6.17;;
12846;SDS011;6492;48.128;8.320;2023-02-08T05:52:12;10.07;;;6.30;;
12846;SDS011;6492;48.128;8.320;2023-02-08T05:56:56;10.63;;;6.10;;
12846;SDS011;6492;48.128;8.320;2023-02-08T06:05:38;11.33;;;5.57;;
12846;SDS011;6492;48.128;8.320;2023-02-08T06:14:43;17.50;;;8.07;;
12846;SDS011;6492;48.128;8.320;2023-02-08T06:19:02;21.43;;;10.83;;
12846;SDS011;6492;48.128;8.320;2023-02-08T06:23:32;24.37;;;12.47;;
12846;SDS011;6492;48.128;8.320;2023-02-08T06:27:56;18.23;;;10.00;;
12846;SDS011;6492;48.128;8.320;2023-02-08T06:32:24;11.73;;;7.43;;
12846;SDS011;6492;48.128;8.320;2023-02-08T06:46:19;12.40;;;6.93;;
12846;SDS011;6492;48.128;8.320;2023-02-08T07:14:49;14.03;;;7.80;;
12846;SDS011;6492;48.128;8.320;2023-02-08T07:19:07;14.63;;;7.47;;
12846;SDS011;6492;48.128;8.320;2023-02-08T07:23:48;10.43;;;6.27;;
12846;SDS011;6492;48.128;8.320;2023-02-08T07:47:30;10.30;;;5.40;;
12846;SDS011;6492;48.128;8.320;2023-02-08T07:51:36;11.17;;;6.17;;
12846;SDS011;6492;48.128;8.320;2023-02-08T08:15:34;13.53;;;6.43;;
12846;SDS011;6492;48.128;8.320;2023-02-08T08:55:56;10.60;;;6.70;;
12846;SDS011;6492;48.128;8.320;2023-02-08T08:59:57;13.23;;;7.10;;
12846;SDS011;6492;48.128;8.320;2023-02-08T09:03:59;13.27;;;7.53;;
12846;SDS011;6492;48.128;8.320;2023-02-08T09:08:01;10.90;;;6.60;;
12846;SDS011;6492;48.128;8.320;2023-02-08T09:12:04;16.83;;;7.23;;
12846;SDS011;6492;48.128;8.320;2023-02-08T09:16:07;12.20;;;7.03;;
12846;SDS011;6492;48.128;8.320;2023-02-08T09:20:10;10.57;;;6.87;;
12846;SDS011;6492;48.128;8.320;2023-02-08T09:24:12;12.30;;;6.93;;
12846;SDS011;6492;48.128;8.320;2023-02-08T09:28:15;12.67;;;7.10;;
12846;SDS011;6492;48.128;8.320;2023-02-08T09:32:17;11.30;;;6.80;;
12846;SDS011;6492;48.128;8.320;2023-02-08T09:36:20;15.53;;;7.97;;
12846;SDS011;6492;48.128;8.320;2023-02-08T09:40:24;12.77;;;6.87;;
12846;SDS011;6492;48.128;8.320;2023-02-08T09:44:31;13.27;;;6.70;;
12846;SDS011;6492;48.128;8.320;2023-02-08T09:48:38;10.83;;;6.53;;
12846;SDS011;6492;48.128;8.320;2023-02-08T09:52:43;11.13;;;7.23;;
12846;SDS011;6492;48.128;8.320;2023-02-08T09:56:49;10.40;;;6.47;;
12846;SDS011;6492;48.128;8.320;2023-02-08T10:00:54;10.80;;;6.03;;
12846;SDS011;6492;48.128;8.320;2023-02-08T10:04:57;9.73;;;6.40;;
12846;SDS011;6492;48.128;8.320;2023-02-08T10:09:03;12.60;;;7.20;;
12846;SDS011;6492;48.128;8.320;2023-02-08T10:13:11;10.37;;;6.17;;
12846;SDS011;6492;48.128;8.320;2023-02-08T10:17:27;9.50;;;5.70;;
12846;SDS011;6492;48.128;8.320;2023-02-08T10:21:41;11.70;;;6.50;;
12846;SDS011;6492;48.128;8.320;2023-02-08T10:25:57;10.33;;;5.90;;
12846;SDS011;6492;48.128;8.320;2023-02-08T10:30:20;7.67;;;5.67;;
12846;SDS011;6492;48.128;8.320;2023-02-08T10:34:37;7.60;;;5.50;;
12846;SDS011;6492;48.128;8.320;2023-02-08T10:38:44;8.63;;;5.57;;
12846;SDS011;6492;48.128;8.320;2023-02-08T10:42:50;7.93;;;5.20;;
12846;SDS011;6492;48.128;8.320;2023-02-08T10:47:01;11.53;;;5.30;;
12846;SDS011;6492;48.128;8.320;2023-02-08T10:51:11;7.50;;;4.60;;
12846;SDS011;6492;48.128;8.320;2023-02-08T10:55:17;9.13;;;5.10;;
12846;SDS011;6492;48.128;8.320;2023-02-08T10:59:21;6.73;;;4.30;;
12846;SDS011;6492;48.128;8.320;2023-02-08T11:03:26;10.67;;;6.07;;
12846;SDS011;6492;48.128;8.320;2023-02-08T11:11:45;6.47;;;4.80;;
12846;SDS011;6492;48.128;8.320;2023-02-08T11:15:50;7.23;;;4.40;;
12846;SDS011;6492;48.128;8.320;2023-02-08T11:19:53;5.33;;;4.17;;
12846;SDS011;6492;48.128;8.320;2023-02-08T11:23:56;7.87;;;5.00;;
12846;SDS011;6492;48.128;8.320;2023-02-08T11:28:00;6.20;;;4.70;;
12846;SDS011;6492;48.128;8.320;2023-02-08T11:32:03;8.17;;;4.87;;
12846;SDS011;6492;48.128;8.320;2023-02-08T11:36:15;7.53;;;4.83;;
12846;SDS011;6492;48.128;8.320;2023-02-08T11:40:20;7.53;;;5.17;;
12846;SDS011;6492;48.128;8.320;2023-02-08T11:44:24;7.80;;;4.67;;
12846;SDS011;6492;48.128;8.320;2023-02-08T11:48:34;8.63;;;5.27;;
12846;SDS011;6492;48.128;8.320;2023-02-08T11:52:42;7.77;;;4.97;;
12846;SDS011;6492;48.128;8.320;2023-02-08T11:57:00;7.33;;;4.67;;
12846;SDS011;6492;48.128;8.320;2023-02-08T12:01:03;5.37;;;4.23;;
12846;SDS011;6492;48.128;8.320;2023-02-08T12:05:09;10.83;;;5.07;;
12846;SDS011;6492;48.128;8.320;2023-02-08T12:09:16;8.83;;;4.63;;
12846;SDS011;6492;48.128;8.320;2023-02-08T12:13:42;6.00;;;4.03;;
12846;SDS011;6492;48.128;8.320;2023-02-08T12:18:11;10.47;;;5.93;;
12846;SDS011;6492;48.128;8.320;2023-02-08T12:22:22;8.97;;;5.47;;
12846;SDS011;6492;48.128;8.320;2023-02-08T12:26:34;7.20;;;5.27;;
12846;SDS011;6492;48.128;8.320;2023-02-08T12:30:56;7.43;;;4.53;;
12846;SDS011;6492;48.128;8.320;2023-02-08T12:35:16;7.00;;;4.20;;
12846;SDS011;6492;48.128;8.320;2023-02-08T12:39:33;6.90;;;4.33;;
12846;SDS011;6492;48.128;8.320;2023-02-08T12:44:01;6.53;;;4.43;;
12846;SDS011;6492;48.128;8.320;2023-02-08T12:48:17;6.20;;;4.40;;
12846;SDS011;6492;48.128;8.320;2023-02-08T12:52:35;5.63;;;4.13;;
12846;SDS011;6492;48.128;8.320;2023-02-08T12:56:39;6.20;;;3.37;;
12846;SDS011;6492;48.128;8.320;2023-02-08T13:00:45;4.63;;;3.13;;
12846;SDS011;6492;48.128;8.320;2023-02-08T13:04:51;5.00;;;3.33;;
12846;SDS011;6492;48.128;8.320;2023-02-08T13:08:59;7.47;;;3.43;;
12846;SDS011;6492;48.128;8.320;2023-02-08T13:13:09;7.53;;;3.43;;
12846;SDS011;6492;48.128;8.320;2023-02-08T13:17:18;4.57;;;2.90;;
12846;SDS011;6492;48.128;8.320;2023-02-08T13:21:25;3.63;;;2.83;;
12846;SDS011;6492;48.128;8.320;2023-02-08T13:25:35;5.37;;;2.97;;
12846;SDS011;6492;48.128;8.320;2023-02-08T13:29:45;5.17;;;3.10;;
12846;SDS011;6492;48.128;8.320;2023-02-08T13:33:50;4.90;;;3.03;;
12846;SDS011;6492;48.128;8.320;2023-02-08T13:37:57;4.97;;;3.10;;
12846;SDS011;6492;48.128;8.320;2023-02-08T13:42:03;3.87;;;2.93;;
12846;SDS011;6492;48.128;8.320;2023-02-08T13:46:06;5.77;;;3.30;;
12846;SDS011;6492;48.128;8.320;2023-02-08T13:54:42;6.07;;;3.30;;
12846;SDS011;6492;48.128;8.320;2023-02-08T13:58:58;5.13;;;2.90;;
12846;SDS011;6492;48.128;8.320;2023-02-08T14:03:01;7.80;;;3.30;;
12846;SDS011;6492;48.128;8.320;2023-02-08T14:07:32;4.10;;;3.07;;
12846;SDS011;6492;48.128;8.320;2023-02-08T14:11:43;6.20;;;3.60;;
12846;SDS011;6492;48.128;8.320;2023-02-08T14:15:48;6.27;;;3.60;;
12846;SDS011;6492;48.128;8.320;2023-02-08T14:20:30;7.33;;;3.37;;
12846;SDS011;6492;48.128;8.320;2023-02-08T14:24:35;4.00;;;3.40;;
12846;SDS011;6492;48.128;8.320;2023-02-08T14:28:42;6.17;;;3.70;;
12846;SDS011;6492;48.128;8.320;2023-02-08T14:32:48;4.03;;;2.97;;
12846;SDS011;6492;48.128;8.320;2023-02-08T14:36:59;4.43;;;3.10;;
12846;SDS011;6492;48.128;8.320;2023-02-08T14:41:03;5.90;;;3.50;;
12846;SDS011;6492;48.128;8.320;2023-02-08T14:45:16;5.43;;;3.50;;
12846;SDS011;6492;48.128;8.320;2023-02-08T14:49:27;5.90;;;3.90;;
12846;SDS011;6492;48.128;8.320;2023-02-08T14:53:39;5.43;;;3.60;;
12846;SDS011;6492;48.128;8.320;2023-02-08T14:57:46;5.57;;;3.83;;
12846;SDS011;6492;48.128;8.320;2023-02-08T15:01:50;7.47;;;4.50;;
12846;SDS011;6492;48.128;8.320;2023-02-08T15:06:14;4.30;;;3.47;;
12846;SDS011;6492;48.128;8.320;2023-02-08T15:10:36;6.20;;;3.90;;
12846;SDS011;6492;48.128;8.320;2023-02-08T15:14:43;4.80;;;3.47;;
12846;SDS011;6492;48.128;8.320;2023-02-08T15:18:47;6.30;;;4.40;;
12846;SDS011;6492;48.128;8.320;2023-02-08T15:22:58;4.70;;;3.80;;
12846;SDS011;6492;48.128;8.320;2023-02-08T15:27:01;9.33;;;4.53;;
12846;SDS011;6492;48.128;8.320;2023-02-08T15:31:03;5.63;;;4.30;;
12846;SDS011;6492;48.128;8.320;2023-02-08T15:35:13;14.43;;;8.33;;
12846;SDS011;6492;48.128;8.320;2023-02-08T15:39:22;8.47;;;4.70;;
12846;SDS011;6492;48.128;8.320;2023-02-08T15:43:31;7.47;;;4.53;;
12846;SDS011;6492;48.128;8.320;2023-02-08T15:47:34;6.77;;;4.80;;
12846;SDS011;6492;48.128;8.320;2023-02-08T15:51:40;7.30;;;4.60;;
12846;SDS011;6492;48.128;8.320;2023-02-08T15:55:43;9.63;;;5.43;;
12846;SDS011;6492;48.128;8.320;2023-02-08T15:59:49;8.87;;;5.70;;
12846;SDS011;6492;48.128;8.320;2023-02-08T16:03:52;6.73;;;4.73;;
12846;SDS011;6492;48.128;8.320;2023-02-08T16:07:59;7.70;;;5.10;;
12846;SDS011;6492;48.128;8.320;2023-02-08T16:12:02;8.37;;;5.40;;
12846;SDS011;6492;48.128;8.320;2023-02-08T16:16:14;9.80;;;4.83;;
12846;SDS011;6492;48.128;8.320;2023-02-08T16:20:33;9.90;;;5.50;;
12846;SDS011;6492;48.128;8.320;2023-02-08T16:24:37;10.97;;;5.47;;
12846;SDS011;6492;48.128;8.320;2023-02-08T16:28:39;8.80;;;5.50;;
12846;SDS011;6492;48.128;8.320;2023-02-08T16:32:41;12.97;;;5.87;;
12846;SDS011;6492;48.128;8.320;2023-02-08T16:36:49;9.97;;;5.50;;
12846;SDS011;6492;48.128;8.320;2023-02-08T16:40:54;10.37;;;6.67;;
12846;SDS011;6492;48.128;8.320;2023-02-08T16:45:00;9.13;;;5.87;;
12846;SDS011;6492;48.128;8.320;2023-02-08T16:49:18;10.80;;;5.60;;
12846;SDS011;6492;48.128;8.320;2023-02-08T16:53:20;13.07;;;7.40;;
12846;SDS011;6492;48.128;8.320;2023-02-08T16:57:23;15.07;;;8.97;;
12846;SDS011;6492;48.128;8.320;2023-02-08T17:01:38;12.53;;;8.33;;
12846;SDS011;6492;48.128;8.320;2023-02-08T17:05:43;10.37;;;7.20;;
12846;SDS011;6492;48.128;8.320;2023-02-08T17:09:46;10.40;;;6.60;;
12846;SDS011;6492;48.128;8.320;2023-02-08T17:13:53;9.50;;;6.67;;
12846;SDS011;6492;48.128;8.320;2023-02-08T17:17:59;12.53;;;8.77;;
12846;SDS011;6492;48.128;8.320;2023-02-08T17:22:06;16.87;;;10.70;;
12846;SDS011;6492;48.128;8.320;2023-02-08T17:26:11;14.50;;;8.93;;
12846;SDS011;6492;48.128;8.320;2023-02-08T17:34:32;11.90;;;7.47;;
12846;SDS011;6492;48.128;8.320;2023-02-08T17:38:35;13.23;;;7.37;;
12846;SDS011;6492;48.128;8.320;2023-02-08T17:42:50;12.57;;;8.33;;
12846;SDS011;6492;48.128;8.320;2023-02-08T17:46:54;15.90;;;10.67;;
12846;SDS011;6492;48.128;8.320;2023-02-08T17:51:06;17.77;;;12.03;;
12846;SDS011;6492;48.128;8.320;2023-02-08T17:55:10;15.07;;;9.47;;
12846;SDS011;6492;48.128;8.320;2023-02-08T17:59:14;16.17;;;9.53;;
12846;SDS011;6492;48.128;8.320;2023-02-08T18:17:34;17.43;;;10.17;;
12846;SDS011;6492;48.128;8.320;2023-02-08T18:26:35;16.73;;;10.10;;
12846;SDS011;6492;48.128;8.320;2023-02-08T18:39:48;16.87;;;10.37;;
12846;SDS011;6492;48.128;8.320;2023-02-08T18:48:31;15.87;;;9.83;;
12846;SDS011;6492;48.128;8.320;2023-02-08T18:56:58;17.40;;;10.87;;
12846;SDS011;6492;48.128;8.320;2023-02-08T19:01:04;16.60;;;10.07;;
12846;SDS011;6492;48.128;8.320;2023-02-08T19:05:07;18.57;;;10.07;;
12846;SDS011;6492;48.128;8.320;2023-02-08T19:09:15;13.00;;;8.93;;
12846;SDS011;6492;48.128;8.320;2023-02-08T19:22:30;25.20;;;13.57;;
12846;SDS011;6492;48.128;8.320;2023-02-08T19:26:45;18.83;;;11.57;;
12846;SDS011;6492;48.128;8.320;2023-02-08T19:31:00;18.23;;;11.80;;
12846;SDS011;6492;48.128;8.320;2023-02-08T19:35:10;22.93;;;13.23;;
12846;SDS011;6492;48.128;8.320;2023-02-08T19:39:13;20.90;;;11.43;;
12846;SDS011;6492;48.128;8.320;2023-02-08T19:43:17;20.23;;;11.70;;
12846;SDS011;6492;48.128;8.320;2023-02-08T19:47:19;21.17;;;11.70;;
12846;SDS011;6492;48.128;8.320;2023-02-08T19:51:26;17.97;;;11.43;;
12846;SDS011;6492;48.128;8.320;2023-02-08T19:55:29;22.53;;;11.93;;
12846;SDS011;6492;48.128;8.320;2023-02-08T19:59:31;18.37;;;11.30;;
12846;SDS011;6492;48.128;8.320;2023-02-08T20:03:32;22.03;;;11.40;;
12846;SDS011;6492;48.128;8.320;2023-02-08T20:12:12;17.37;;;11.13;;
12846;SDS011;6492;48.128;8.320;2023-02-08T20:16:27;19.47;;;10.93;;
12846;SDS011;6492;48.128;8.320;2023-02-08T20:20:39;19.73;;;11.97;;
12846;SDS011;6492;48.128;8.320;2023-02-08T20:24:48;23.17;;;11.67;;
12846;SDS011;6492;48.128;8.320;2023-02-08T20:37:46;26.43;;;13.70;;
12846;SDS011;6492;48.128;8.320;2023-02-08T20:41:50;21.43;;;11.30;;
12846;SDS011;6492;48.128;8.320;2023-02-08T20:45:55;22.33;;;12.33;;
12846;SDS011;6492;48.128;8.320;2023-02-08T20:55:06;21.63;;;12.90;;
12846;SDS011;6492;48.128;8.320;2023-02-08T20:59:10;26.57;;;12.83;;
12846;SDS011;6492;48.128;8.320;2023-02-08T21:03:14;24.93;;;14.07;;
12846;SDS011;6492;48.128;8.320;2023-02-08T21:07:16;23.50;;;12.40;;
12846;SDS011;6492;48.128;8.320;2023-02-08T21:15:40;23.70;;;12.17;;
12846;SDS011;6492;48.128;8.320;2023-02-08T21:19:58;25.77;;;13.53;;
12846;SDS011;6492;48.128;8.320;2023-02-08T21:28:20;20.60;;;12.00;;
